Meleuz, Russia
Current Conditions -  °F | °C
As of 2:30 PM on Wednesday 22 Oct 2014 (Local Time) from UWOO Reporting Station
Overcast Overcast  
Wind Chill: 52°   Ceiling: 1300
Heat Index: 52°   Visibility: 3mi
Dew Point: 48°   Wind: 16mph
Humidity: 88%   Direction: 220°SW
Pressure: 29.56"   Gusts: NA
Location:  52.97°N, 55.92°E
Report Text: UWOO 220930Z 22007MPS P5000 OVC013 11/09 Q1001 26290055 TEMPO2000 RA BR OVC005 RMK QFE740/0987
Loading
Personal Weather Stations






























Interactive Weather Map
Tropical Storm Tracking
New forecast layout! Learn more

10-Day Weather Forecast

Advertisements
Track Severe Weather on mobile